»·PEaware :: N654BR KLAX-KSNA

N654BR :: KLAX-KSNA

FLIGHT INFORMATION

Flight Status: Arrived
Operator: Privately registered:
United States
More flights under this callsign
Pilot: Carter R. (27114)
Aircraft: AÉROSPATIALE TRINIDAD
(TRIN)
More flights by this aircraft type
Origin: KLAX Los Angeles Intl
United States
Destination: KSNA John Wayne-Orange Co
United States
More flights between these airports :: More routes between these airports
Route: SLI8 SLI
File this flight plan on PilotEdge
Remarks:
Altitude:
(Current/Filed)
4,000ft
Speed:
(Current/Filed)
140kts
Departed: 10-Jan-21 02:09 PM
Arrived: 10-Jan-21 02:49 PM
Distance/Time
Traveled:
31nm/0:40
Distance/Time
To Go:
Arrived

Flight Plot

Page will automatically refresh every two minutes.

Flight plan parsing failed; only flown route is shown


Map Options




Map Legend


Flown Route
Filed Route
Departure Airport
Arrival Airport
Navaid (VOR, NDB)
Fix

Horizontal Profiles

Position Reports

Time Latitude Longitude Heading Altitude Ground
Speed
10-Jan-21 13:49 33.933207 -118.397461 264 108ft 0kts
10-Jan-21 13:50 33.933207 -118.397461 264 108ft 0kts
10-Jan-21 13:51 33.933207 -118.397461 263 108ft 0kts
10-Jan-21 13:52 33.933207 -118.397461 264 108ft 0kts
10-Jan-21 13:53 33.933207 -118.397461 264 108ft 0kts
10-Jan-21 13:54 33.933207 -118.397461 264 108ft 0kts
10-Jan-21 13:55 33.933207 -118.397461 264 108ft 0kts
10-Jan-21 13:56 33.933207 -118.397461 264 108ft 0kts
10-Jan-21 13:58 33.933207 -118.397461 263 108ft 0kts
10-Jan-21 13:59 33.933198 -118.397702 276 108ft 6kts
10-Jan-21 14:00 33.934334 -118.398159 15 108ft 8kts
10-Jan-21 14:01 33.934896 -118.394942 81 105ft 18kts
10-Jan-21 14:02 33.935272 -118.391180 86 102ft 14kts
10-Jan-21 14:03 33.935686 -118.387069 83 98ft 17kts
10-Jan-21 14:04 33.936094 -118.383075 84 95ft 9kts
10-Jan-21 14:05 33.936175 -118.382870 19 95ft 0kts
10-Jan-21 14:06 33.936175 -118.382870 19 95ft 0kts
10-Jan-21 14:07 33.936175 -118.382870 19 95ft 0kts
10-Jan-21 14:08 33.937211 -118.384206 262 97ft 29kts
10-Jan-21 14:09 33.934802 -118.404031 255 649ft 70kts
10-Jan-21 14:10 33.928674 -118.439182 259 1684ft 81kts
10-Jan-21 14:11 33.906978 -118.469214 208 2873ft 84kts
10-Jan-21 14:12 33.878774 -118.470408 172 3694ft 93kts
10-Jan-21 14:13 33.851837 -118.459237 143 4225ft 118kts
10-Jan-21 14:13 33.832929 -118.436529 134 4382ft 104kts
10-Jan-21 14:14 33.813833 -118.411163 134 3903ft 104kts
10-Jan-21 14:16 33.782810 -118.378695 139 4249ft 146kts
10-Jan-21 14:16 33.753751 -118.350365 141 4005ft 161kts
10-Jan-21 14:17 33.718960 -118.316568 141 4011ft 158kts
10-Jan-21 14:18 33.695496 -118.275882 66 4001ft 153kts
10-Jan-21 14:19 33.719211 -118.235345 61 4013ft 152kts
10-Jan-21 14:20 33.736015 -118.188335 63 4012ft 153kts
10-Jan-21 14:21 33.752804 -118.140831 63 4030ft 154kts
10-Jan-21 14:22 33.769660 -118.093057 64 4031ft 156kts
10-Jan-21 14:23 33.787169 -118.044886 61 4027ft 157kts
10-Jan-21 14:24 33.806108 -117.997692 61 4021ft 156kts
10-Jan-21 14:25 33.824907 -117.950881 60 4014ft 152kts
10-Jan-21 14:26 33.842403 -117.907323 60 4012ft 142kts
10-Jan-21 14:27 33.859433 -117.864858 60 4010ft 140kts
10-Jan-21 14:28 33.876338 -117.822626 60 4009ft 138kts
10-Jan-21 14:29 33.892910 -117.781173 60 4009ft 136kts
10-Jan-21 14:30 33.909241 -117.740270 60 4012ft 134kts
10-Jan-21 14:31 33.929742 -117.704836 24 4018ft 128kts
10-Jan-21 14:32 33.962549 -117.687615 350 3612ft 128kts
10-Jan-21 14:33 33.960414 -117.716407 183 3374ft 131kts
10-Jan-21 14:34 33.931523 -117.710594 173 3318ft 90kts
10-Jan-21 14:35 33.910280 -117.720720 208 3579ft 86kts
10-Jan-21 14:36 33.889344 -117.734716 206 3355ft 86kts
10-Jan-21 14:37 33.868185 -117.746815 210 3470ft 83kts
10-Jan-21 14:38 33.847137 -117.758969 212 3435ft 84kts
10-Jan-21 14:39 33.826150 -117.771977 218 3131ft 83kts
10-Jan-21 14:40 33.806878 -117.785931 216 2852ft 77kts
10-Jan-21 14:41 33.787508 -117.798328 214 2394ft 78kts
10-Jan-21 14:42 33.768884 -117.810373 212 2007ft 75kts
10-Jan-21 14:43 33.750616 -117.821749 212 1616ft 73kts
10-Jan-21 14:44 33.732629 -117.832810 211 1213ft 72kts
10-Jan-21 14:45 33.714789 -117.843919 209 837ft 73kts
10-Jan-21 14:46 33.696602 -117.855561 209 427ft 72kts
10-Jan-21 14:47 33.680246 -117.865953 195 59ft 50kts
10-Jan-21 14:48 33.674719 -117.868584 166 59ft 5kts
10-Jan-21 14:49 33.674398 -117.868475 153 59ft 0kts
10-Jan-21 14:50 33.674398 -117.868475 154 59ft 0kts
10-Jan-21 14:51 33.673833 -117.867080 141 59ft 7kts
10-Jan-21 14:52 33.672646 -117.866395 43 59ft 0kts
10-Jan-21 14:53 33.672646 -117.866395 43 59ft 0kts

Navigation Log

Ident Type
Flight plan parsing failed, navigation log unavailable